Time;durP1;ratioP1;P1;durP2;ratioP2;P2;SDS_P1;SDS_P2;PMS_P1;PMS_P2;Temp;Humidity;BMP_temperature;BMP_pressure;BME280_temperature;BME280_humidity;BME280_pressure;Samples;Min_cycle;Max_cycle;Signal;HPM_P1;HPM_P2
2023/04/26 00:01:57;;;;;;;1.67;0.80;;;7.30;99.90;;;;;;5074704;28;20843;-85
2023/04/26 00:04:24;;;;;;;1.20;0.73;;;7.30;99.90;;;;;;5075422;28;20499;-85
2023/04/26 00:06:51;;;;;;;1.13;0.80;;;7.30;99.90;;;;;;5075011;28;20452;-86
2023/04/26 00:09:19;;;;;;;1.90;1.80;;;7.30;99.90;;;;;;5075142;28;20452;-86
2023/04/26 00:11:46;;;;;;;1.00;0.70;;;7.40;99.90;;;;;;5074809;28;20461;-86
2023/04/26 00:14:13;;;;;;;1.40;0.70;;;7.30;99.90;;;;;;5074894;28;20453;-86
2023/04/26 00:16:39;;;;;;;3.07;1.73;;;7.30;99.90;;;;;;5074464;28;20456;-84
2023/04/26 00:19:06;;;;;;;1.03;1.03;;;7.30;99.90;;;;;;5074412;28;20434;-84
2023/04/26 00:21:33;;;;;;;1.20;1.10;;;7.30;99.90;;;;;;5074592;28;20831;-84
2023/04/26 00:24:00;;;;;;;0.80;0.60;;;7.30;99.90;;;;;;5074376;28;20485;-86
2023/04/26 00:26:28;;;;;;;1.30;1.20;;;7.30;99.90;;;;;;5074261;28;20449;-85
2023/04/26 00:28:55;;;;;;;1.90;0.77;;;7.30;99.90;;;;;;5074342;28;20445;-85
2023/04/26 00:31:22;;;;;;;1.50;0.77;;;7.30;99.90;;;;;;5074292;28;20450;-85
2023/04/26 00:33:49;;;;;;;0.80;0.80;;;7.30;99.90;;;;;;5074474;28;20453;-85
2023/04/26 00:36:18;;;;;;;3.17;0.97;;;7.20;99.90;;;;;;5074097;28;20438;-85
2023/04/26 00:38:45;;;;;;;1.40;1.30;;;7.20;99.90;;;;;;5074358;28;20493;-85
2023/04/26 00:41:12;;;;;;;0.70;0.50;;;7.20;99.90;;;;;;5074331;28;20519;-85
2023/04/26 00:43:40;;;;;;;1.93;1.00;;;7.20;99.90;;;;;;5074218;28;20477;-86
2023/04/26 00:46:08;;;;;;;1.33;1.00;;;7.20;99.90;;;;;;5074137;28;20454;-84
2023/04/26 00:48:36;;;;;;;4.27;0.70;;;7.20;99.90;;;;;;5074009;28;20452;-84
2023/04/26 00:51:04;;;;;;;0.90;0.90;;;7.20;99.90;;;;;;5073959;28;20477;-85
2023/04/26 00:53:33;;;;;;;0.90;0.73;;;7.10;99.90;;;;;;5074137;28;20437;-85
2023/04/26 00:56:00;;;;;;;3.03;1.63;;;7.10;99.90;;;;;;5073947;28;20552;-86
2023/04/26 00:58:27;;;;;;;0.50;0.50;;;7.10;99.90;;;;;;5074224;28;20453;-85
2023/04/26 01:00:55;;;;;;;1.77;0.90;;;7.00;99.90;;;;;;5073716;28;20493;-85
2023/04/26 01:03:22;;;;;;;1.20;1.20;;;7.00;99.90;;;;;;5073722;28;20480;-85
2023/04/26 01:05:49;;;;;;;3.50;1.00;;;6.90;99.90;;;;;;5074088;28;20446;-85
2023/04/26 01:08:19;;;;;;;0.80;0.80;;;7.00;99.90;;;;;;5073946;28;20450;-85
2023/04/26 01:10:47;;;;;;;1.40;1.03;;;6.90;99.90;;;;;;5073622;28;20999;-86
2023/04/26 01:13:14;;;;;;;1.67;1.10;;;6.90;99.90;;;;;;5073950;28;20448;-86
2023/04/26 01:15:45;;;;;;;1.77;0.63;;;6.80;99.90;;;;;;5073649;28;20454;-86
2023/04/26 01:18:14;;;;;;;0.40;0.40;;;6.90;99.90;;;;;;5074574;28;20442;-86
2023/04/26 01:20:41;;;;;;;1.23;1.10;;;6.90;99.90;;;;;;5073975;28;20477;-84
2023/04/26 01:23:10;;;;;;;0.80;0.70;;;6.90;99.90;;;;;;5073718;28;20581;-85
2023/04/26 01:25:37;;;;;;;0.50;0.50;;;6.90;99.90;;;;;;5073420;28;20500;-85
2023/04/26 01:28:04;;;;;;;1.07;0.60;;;6.80;99.90;;;;;;5073646;28;20445;-85
2023/04/26 01:30:30;;;;;;;2.70;1.13;;;6.80;99.90;;;;;;5073515;28;20557;-85
2023/04/26 01:32:57;;;;;;;1.00;0.60;;;6.80;99.90;;;;;;5073672;28;20449;-85
2023/04/26 01:35:24;;;;;;;0.70;0.60;;;6.80;99.90;;;;;;5073880;28;20449;-84
2023/04/26 01:37:50;;;;;;;3.60;1.23;;;6.70;99.90;;;;;;5073588;28;20449;-85
2023/04/26 01:40:19;;;;;;;0.83;0.80;;;6.70;99.90;;;;;;5073476;28;20445;-86
2023/04/26 01:42:45;;;;;;;0.97;0.97;;;6.70;99.90;;;;;;5073636;28;20814;-86
2023/04/26 01:45:12;;;;;;;2.13;1.07;;;6.70;99.90;;;;;;5073322;28;20439;-85
2023/04/26 01:47:39;;;;;;;2.50;0.90;;;6.70;99.90;;;;;;5073381;28;20453;-85
2023/04/26 01:50:07;;;;;;;1.33;0.67;;;6.70;99.90;;;;;;5073405;28;20486;-85
2023/04/26 01:52:35;;;;;;;1.23;1.13;;;6.70;99.90;;;;;;5073278;28;20816;-85
2023/04/26 01:55:01;;;;;;;1.17;0.77;;;6.70;99.90;;;;;;5073313;28;20453;-85
2023/04/26 01:57:29;;;;;;;1.63;0.90;;;6.70;99.90;;;;;;5073267;28;20453;-85
2023/04/26 01:59:58;;;;;;;1.80;1.00;;;6.60;99.90;;;;;;5073257;28;20456;-85
2023/04/26 02:02:25;;;;;;;1.03;0.70;;;6.50;99.90;;;;;;5072957;28;20482;-85
2023/04/26 02:04:52;;;;;;;0.90;0.60;;;6.50;99.90;;;;;;5073195;28;20485;-84
2023/04/26 02:07:18;;;;;;;1.90;1.17;;;6.40;99.90;;;;;;5073779;28;20455;-85
2023/04/26 02:09:45;;;;;;;2.27;0.70;;;6.40;99.90;;;;;;5073332;28;20834;-85
2023/04/26 02:12:12;;;;;;;2.03;1.83;;;6.40;99.90;;;;;;5073017;28;20469;-85
2023/04/26 02:14:40;;;;;;;1.17;0.77;;;6.40;99.90;;;;;;5073171;28;20450;-85
2023/04/26 02:17:07;;;;;;;1.90;0.90;;;6.40;99.90;;;;;;5075660;28;20456;-84
2023/04/26 02:19:34;;;;;;;4.13;1.17;;;6.40;99.90;;;;;;5076928;28;20864;-85
2023/04/26 02:22:01;;;;;;;2.40;0.87;;;6.40;99.90;;;;;;5076699;28;20460;-85
2023/04/26 02:24:28;;;;;;;0.60;0.60;;;6.40;99.90;;;;;;5076849;28;20508;-85
2023/04/26 02:26:59;;;;;;;0.77;0.77;;;6.40;99.90;;;;;;5076968;28;20455;-85
2023/04/26 02:29:26;;;;;;;0.83;0.73;;;6.30;99.90;;;;;;5076813;28;20433;-85
2023/04/26 02:31:54;;;;;;;1.27;0.70;;;6.30;99.90;;;;;;5076767;28;20465;-85
2023/04/26 02:34:20;;;;;;;1.27;1.13;;;6.20;99.90;;;;;;5076408;28;20445;-85
2023/04/26 02:36:48;;;;;;;1.80;1.23;;;6.20;99.90;;;;;;5076708;28;20453;-85
2023/04/26 02:39:15;;;;;;;6.70;0.80;;;6.20;99.90;;;;;;5076642;28;20866;-85
2023/04/26 02:41:42;;;;;;;0.70;0.60;;;6.10;99.90;;;;;;5076518;28;20488;-85
2023/04/26 02:44:09;;;;;;;4.63;1.83;;;6.10;99.90;;;;;;5076401;28;20485;-84
2023/04/26 02:46:36;;;;;;;0.90;0.67;;;6.10;99.90;;;;;;5076562;28;20931;-85
2023/04/26 02:49:04;;;;;;;1.87;0.70;;;6.20;99.90;;;;;;5076220;28;20941;-85
2023/04/26 02:51:31;;;;;;;0.87;0.60;;;6.20;99.90;;;;;;5076611;28;20822;-85
2023/04/26 02:53:58;;;;;;;1.50;1.03;;;6.20;99.90;;;;;;5076342;28;20445;-84
2023/04/26 02:56:25;;;;;;;1.27;0.90;;;6.20;99.90;;;;;;5076193;28;20456;-85
2023/04/26 02:58:51;;;;;;;2.37;0.90;;;6.30;99.90;;;;;;5076225;28;20783;-85
2023/04/26 03:01:18;;;;;;;2.50;1.17;;;6.30;99.90;;;;;;5075923;28;20488;-85
2023/04/26 03:03:45;;;;;;;2.10;1.83;;;6.30;99.90;;;;;;5075901;28;20485;-85
2023/04/26 03:06:13;;;;;;;2.23;1.13;;;6.30;99.90;;;;;;5076328;28;20454;-85
2023/04/26 03:08:40;;;;;;;0.60;0.60;;;6.30;99.90;;;;;;5075981;28;20816;-84
2023/04/26 03:11:06;;;;;;;0.80;0.80;;;6.20;99.90;;;;;;5076066;28;20473;-85
2023/04/26 03:13:33;;;;;;;3.60;0.97;;;6.10;99.90;;;;;;5076153;28;20510;-85
2023/04/26 03:16:00;;;;;;;0.50;0.50;;;6.10;99.90;;;;;;5075938;28;20437;-85
2023/04/26 03:18:27;;;;;;;0.80;0.57;;;6.10;99.90;;;;;;5076044;28;20460;-85
2023/04/26 03:20:53;;;;;;;1.00;0.90;;;6.10;99.90;;;;;;5075605;28;20469;-85
2023/04/26 03:23:23;;;;;;;1.73;0.97;;;6.10;99.90;;;;;;5075884;28;20488;-85
2023/04/26 03:25:50;;;;;;;1.80;1.00;;;6.10;99.90;;;;;;5075995;28;20568;-85
2023/04/26 03:28:17;;;;;;;1.20;1.10;;;6.10;99.90;;;;;;5074676;28;20481;-85
2023/04/26 03:30:44;;;;;;;0.63;0.63;;;6.00;99.90;;;;;;5075559;28;20484;-85
2023/04/26 03:33:10;;;;;;;0.70;0.70;;;6.10;99.90;;;;;;5075401;28;20464;-85
2023/04/26 03:35:37;;;;;;;1.33;1.03;;;6.00;99.90;;;;;;5075521;28;20453;-85
2023/04/26 03:38:04;;;;;;;0.63;0.60;;;6.00;99.90;;;;;;5075627;28;20442;-85
2023/04/26 03:40:32;;;;;;;0.80;0.60;;;5.90;99.90;;;;;;5075120;28;20979;-84
2023/04/26 03:42:58;;;;;;;0.80;0.80;;;5.90;99.90;;;;;;5075520;28;20445;-85
2023/04/26 03:45:25;;;;;;;0.63;0.63;;;5.80;99.90;;;;;;5075271;28;21004;-84
2023/04/26 03:47:52;;;;;;;1.37;0.60;;;5.80;99.90;;;;;;5075210;28;20437;-85
2023/04/26 03:50:19;;;;;;;0.60;0.60;;;5.70;99.90;;;;;;5075281;28;20445;-85
2023/04/26 03:52:46;;;;;;;2.27;1.57;;;5.60;99.90;;;;;;5075420;28;20460;-86
2023/04/26 03:55:12;;;;;;;2.20;0.67;;;5.60;99.90;;;;;;5075336;28;20465;-86
2023/04/26 03:57:40;;;;;;;0.87;0.87;;;5.50;99.90;;;;;;5074999;28;20445;-85
2023/04/26 04:00:10;;;;;;;1.70;0.50;;;5.40;99.90;;;;;;5075280;28;20458;-85
2023/04/26 04:02:37;;;;;;;1.07;0.80;;;5.40;99.90;;;;;;5074608;28;20485;-85
2023/04/26 04:05:04;;;;;;;0.70;0.63;;;5.40;99.90;;;;;;5074828;28;20477;-85
2023/04/26 04:07:31;;;;;;;3.73;1.63;;;5.40;99.90;;;;;;5075478;28;20456;-85
2023/04/26 04:09:58;;;;;;;0.83;0.60;;;5.30;99.90;;;;;;5074827;28;20456;-84
2023/04/26 04:12:25;;;;;;;1.93;1.00;;;5.30;99.90;;;;;;5074827;28;20977;-85
2023/04/26 04:14:54;;;;;;;1.37;1.20;;;5.30;99.90;;;;;;5074386;28;20504;-85
2023/04/26 04:17:20;;;;;;;0.70;0.70;;;5.30;99.90;;;;;;5074761;28;20462;-85
2023/04/26 04:19:47;;;;;;;1.90;1.03;;;5.30;99.90;;;;;;5074631;28;20471;-85
2023/04/26 04:22:14;;;;;;;3.33;1.30;;;5.30;99.90;;;;;;5074616;28;20476;-84
2023/04/26 04:24:41;;;;;;;0.97;0.97;;;5.30;99.90;;;;;;5074497;28;20504;-84
2023/04/26 04:27:08;;;;;;;2.10;1.40;;;5.30;99.90;;;;;;5075253;28;20446;-88
2023/04/26 04:29:35;;;;;;;1.77;1.40;;;5.30;99.90;;;;;;5075310;28;20820;-87
2023/04/26 04:32:03;;;;;;;1.60;1.20;;;5.40;99.90;;;;;;5074851;28;20541;-87
2023/04/26 04:34:34;;;;;;;2.30;1.40;;;5.40;99.90;;;;;;5074901;28;20657;-87
2023/04/26 04:37:03;;;;;;;1.97;1.30;;;5.40;99.90;;;;;;5074693;28;20448;-87
2023/04/26 04:39:29;;;;;;;1.10;0.97;;;5.50;99.90;;;;;;5074579;28;20449;-87
2023/04/26 04:41:57;;;;;;;2.00;1.10;;;5.50;99.90;;;;;;5074624;28;20470;-87
2023/04/26 04:44:25;;;;;;;0.73;0.60;;;5.60;99.90;;;;;;5074791;28;20863;-87
2023/04/26 04:46:52;;;;;;;1.90;1.80;;;5.60;99.90;;;;;;5074679;28;20453;-87
2023/04/26 04:49:20;;;;;;;2.30;1.80;;;5.70;99.90;;;;;;5074675;28;20468;-87
2023/04/26 04:51:47;;;;;;;1.33;0.83;;;5.80;99.90;;;;;;5074613;28;20474;-86
2023/04/26 04:54:15;;;;;;;0.77;0.70;;;5.80;99.90;;;;;;5074471;28;20446;-87
2023/04/26 04:56:43;;;;;;;11.43;1.20;;;5.90;99.90;;;;;;5074451;28;20464;-87
2023/04/26 04:59:10;;;;;;;1.80;1.00;;;6.00;99.90;;;;;;5074532;28;20445;-87
2023/04/26 05:01:37;;;;;;;2.90;1.80;;;6.00;99.90;;;;;;5074195;28;20486;-87
2023/04/26 05:04:05;;;;;;;2.70;1.23;;;6.20;99.90;;;;;;5074431;28;20534;-87
2023/04/26 05:06:33;;;;;;;3.60;2.00;;;6.20;99.90;;;;;;5074442;28;20506;-86
2023/04/26 05:09:00;;;;;;;3.33;0.80;;;6.20;99.90;;;;;;5074365;28;20444;-87
2023/04/26 05:11:27;;;;;;;3.93;1.43;;;6.30;99.90;;;;;;5073863;28;20984;-87
2023/04/26 05:13:53;;;;;;;1.73;1.27;;;6.40;99.90;;;;;;5074402;28;20453;-87
2023/04/26 05:16:20;;;;;;;9.60;2.27;;;6.30;99.90;;;;;;5074231;28;20454;-87
2023/04/26 05:18:47;;;;;;;2.83;0.90;;;6.40;99.90;;;;;;5073817;28;20937;-87
2023/04/26 05:21:13;;;;;;;5.13;1.80;;;6.50;99.90;;;;;;5074313;28;20820;-87
2023/04/26 05:23:42;;;;;;;0.80;0.80;;;6.50;99.90;;;;;;5074056;28;20465;-86
2023/04/26 05:26:13;;;;;;;2.50;1.50;;;6.60;99.90;;;;;;5074469;28;20453;-87
2023/04/26 05:28:40;;;;;;;5.00;1.40;;;6.70;99.90;;;;;;5074440;28;20437;-87
2023/04/26 05:31:06;;;;;;;1.10;1.07;;;6.80;99.90;;;;;;5074110;28;20477;-87
2023/04/26 05:33:33;;;;;;;1.00;0.80;;;6.70;99.90;;;;;;5074110;28;20454;-87
2023/04/26 05:36:00;;;;;;;1.40;1.10;;;6.80;99.90;;;;;;5074139;28;20520;-87
2023/04/26 05:38:27;;;;;;;1.67;1.13;;;6.80;99.90;;;;;;5073993;28;20548;-87
2023/04/26 05:40:55;;;;;;;5.20;2.27;;;6.90;99.90;;;;;;5073540;28;20474;-87
2023/04/26 05:43:22;;;;;;;1.80;0.87;;;7.00;99.90;;;;;;5073542;28;20973;-87
2023/04/26 05:45:52;;;;;;;2.20;1.00;;;7.10;99.90;;;;;;5074344;28;20481;-87
2023/04/26 05:48:20;;;;;;;2.20;0.80;;;7.20;99.90;;;;;;5073926;28;20456;-87
2023/04/26 05:50:47;;;;;;;2.37;1.13;;;7.20;99.90;;;;;;5074634;28;20501;-87
2023/04/26 05:53:14;;;;;;;1.37;1.17;;;7.40;99.90;;;;;;5078007;28;20461;-87
2023/04/26 05:55:41;;;;;;;1.13;0.67;;;7.50;99.90;;;;;;5078007;28;20471;-88
2023/04/26 05:58:09;;;;;;;3.03;1.13;;;7.70;99.90;;;;;;5077916;28;20451;-87
2023/04/26 06:00:37;;;;;;;1.00;1.00;;;7.90;99.90;;;;;;5077813;28;20479;-87
2023/04/26 06:03:04;;;;;;;1.53;1.43;;;8.10;99.90;;;;;;5077798;28;20429;-87
2023/04/26 06:05:31;;;;;;;1.60;1.50;;;8.40;99.90;;;;;;5078258;28;20489;-87
2023/04/26 06:07:58;;;;;;;2.80;1.03;;;8.50;99.90;;;;;;5077504;28;20975;-87
2023/04/26 06:10:25;;;;;;;3.07;2.43;;;8.60;99.90;;;;;;5077653;28;20456;-88
2023/04/26 06:12:52;;;;;;;10.03;1.30;;;8.90;99.90;;;;;;5078071;28;20456;-87
2023/04/26 06:15:20;;;;;;;1.67;1.00;;;9.20;99.90;;;;;;5077591;28;20445;-87
2023/04/26 06:17:46;;;;;;;2.20;1.17;;;9.50;99.90;;;;;;5077653;28;20956;-87
2023/04/26 06:20:13;;;;;;;3.33;1.50;;;9.50;99.90;;;;;;5077353;28;20450;-85
2023/04/26 06:22:40;;;;;;;2.63;1.53;;;9.40;99.90;;;;;;5076650;28;20459;-85
2023/04/26 06:25:08;;;;;;;3.93;1.67;;;9.30;99.90;;;;;;5076748;28;20480;-84
2023/04/26 06:27:35;;;;;;;2.13;1.93;;;9.30;99.90;;;;;;5076939;28;20460;-84
2023/04/26 06:30:02;;;;;;;1.10;1.00;;;9.20;99.90;;;;;;5076521;28;20441;-85
2023/04/26 06:32:30;;;;;;;1.90;1.30;;;9.10;99.90;;;;;;5076533;28;20469;-85
2023/04/26 06:34:57;;;;;;;2.10;1.93;;;9.10;99.90;;;;;;5076697;28;20449;-85
2023/04/26 06:37:23;;;;;;;2.13;1.50;;;9.20;99.90;;;;;;5076700;28;20442;-84
2023/04/26 06:39:50;;;;;;;1.47;1.33;;;9.40;99.90;;;;;;5076735;28;20450;-87
2023/04/26 06:42:17;;;;;;;6.83;1.87;;;9.50;99.90;;;;;;5077051;28;20468;-88
2023/04/26 06:44:44;;;;;;;3.27;1.93;;;9.60;99.90;;;;;;5076771;28;20546;-88
2023/04/26 06:47:10;;;;;;;2.33;1.60;;;10.10;99.90;;;;;;5076605;28;20476;-87
2023/04/26 06:49:39;;;;;;;2.20;1.57;;;10.70;99.90;;;;;;5076769;28;20441;-87
2023/04/26 06:52:06;;;;;;;7.20;1.87;;;11.50;99.90;;;;;;5076771;28;20462;-87
2023/04/26 06:54:33;;;;;;;1.03;1.03;;;12.40;99.90;;;;;;5076487;28;20949;-88
2023/04/26 06:57:01;;;;;;;2.47;1.30;;;13.50;99.90;;;;;;5076868;28;21009;-88
2023/04/26 06:59:27;;;;;;;3.13;1.70;;;14.80;99.90;;;;;;5076861;28;20540;-88
2023/04/26 07:01:54;;;;;;;1.77;1.00;;;16.20;99.90;;;;;;5076094;28;20493;-88
2023/04/26 07:04:21;;;;;;;3.97;1.70;;;17.20;99.90;;;;;;5076525;28;20503;-87
2023/04/26 07:06:50;;;;;;;2.57;1.73;;;18.00;94.40;;;;;;5076221;28;20449;-87
2023/04/26 07:09:16;;;;;;;1.70;1.10;;;18.20;89.70;;;;;;5076082;28;20964;-87
2023/04/26 07:11:46;;;;;;;5.13;2.00;;;18.30;85.60;;;;;;5076506;28;20469;-87
2023/04/26 07:14:12;;;;;;;3.50;1.57;;;18.40;83.50;;;;;;5076588;28;20516;-88
2023/04/26 07:16:39;;;;;;;4.20;1.60;;;18.50;82.60;;;;;;5076459;28;20461;-88
2023/04/26 07:19:06;;;;;;;1.40;1.30;;;18.70;82.70;;;;;;5076281;28;20957;-88
2023/04/26 07:21:33;;;;;;;2.97;1.20;;;19.30;80.40;;;;;;5075966;28;20480;-88
2023/04/26 07:24:01;;;;;;;2.63;0.90;;;19.90;75.90;;;;;;5076464;28;20453;-88
2023/04/26 07:26:28;;;;;;;2.33;1.13;;;20.00;70.90;;;;;;5076274;28;20491;-88
2023/04/26 07:28:55;;;;;;;1.87;1.13;;;19.70;71.90;;;;;;5076066;28;20552;-87
2023/04/26 07:31:22;;;;;;;2.53;1.17;;;19.40;67.50;;;;;;5076007;28;20454;-88
2023/04/26 07:33:49;;;;;;;1.70;1.17;;;19.10;66.00;;;;;;5075776;28;20449;-88
2023/04/26 07:36:16;;;;;;;3.77;0.90;;;19.20;64.00;;;;;;5076105;28;20540;-88
2023/04/26 07:38:42;;;;;;;0.70;0.70;;;20.40;62.50;;;;;;5075907;28;20453;-88
2023/04/26 07:41:11;;;;;;;1.07;0.87;;;20.40;57.50;;;;;;5075639;28;20453;-87
2023/04/26 07:43:38;;;;;;;1.40;1.27;;;20.30;60.30;;;;;;5075733;28;20445;-87
2023/04/26 07:46:05;;;;;;;4.17;2.90;;;20.90;60.40;;;;;;5075578;28;20473;-87
2023/04/26 07:48:32;;;;;;;1.00;0.83;;;21.40;56.80;;;;;;5075574;28;20449;-87
2023/04/26 07:51:07;;;;;;;1.73;1.43;;;21.70;57.60;;;;;;5075474;28;20472;-87
2023/04/26 07:53:34;;;;;;;2.50;1.00;;;22.10;54.90;;;;;;5075361;28;20429;-87
2023/04/26 07:56:01;;;;;;;1.67;1.33;;;22.40;54.80;;;;;;5075494;28;20685;-87
2023/04/26 07:58:31;;;;;;;2.70;1.33;;;22.90;53.30;;;;;;5074791;28;20456;-83
2023/04/26 08:00:58;;;;;;;5.05;1.58;;;23.10;52.90;;;;;;5074786;28;20326;-82
2023/04/26 08:03:26;;;;;;;1.77;1.20;;;23.70;50.20;;;;;;5074935;28;20202;-82
2023/04/26 08:05:53;;;;;;;2.45;1.33;;;24.30;51.00;;;;;;5075385;28;20225;-82
2023/04/26 08:08:20;;;;;;;1.27;1.17;;;24.80;48.90;;;;;;5074850;28;20199;-82
2023/04/26 08:10:47;;;;;;;1.40;1.25;;;25.30;48.80;;;;;;5074727;28;20219;-82
2023/04/26 08:13:14;;;;;;;1.20;1.10;;;26.30;47.70;;;;;;5073824;28;20700;-82
2023/04/26 08:15:42;;;;;;;1.30;1.20;;;26.80;45.10;;;;;;5074315;28;20249;-82
2023/04/26 08:18:09;;;;;;;1.58;1.42;;;26.60;45.00;;;;;;5074952;28;20203;-82
2023/04/26 08:20:36;;;;;;;2.55;1.52;;;26.20;46.50;;;;;;5074576;28;20218;-82
2023/04/26 08:23:03;;;;;;;1.83;1.50;;;25.80;46.00;;;;;;5074347;28;20564;-82
2023/04/26 08:25:29;;;;;;;2.58;1.10;;;25.60;45.10;;;;;;5074460;28;20560;-82
2023/04/26 08:27:56;;;;;;;2.25;1.20;;;25.80;45.60;;;;;;5074614;28;20206;-82
2023/04/26 08:30:23;;;;;;;1.45;1.27;;;25.70;45.00;;;;;;5074661;28;20252;-82
2023/04/26 08:32:51;;;;;;;1.08;1.05;;;25.10;44.30;;;;;;5074079;28;20213;-82
2023/04/26 08:35:18;;;;;;;1.60;1.50;;;24.30;45.70;;;;;;5074242;28;20690;-82
2023/04/26 08:37:45;;;;;;;1.83;1.30;;;22.70;46.70;;;;;;5074297;28;20234;-81
2023/04/26 08:40:12;;;;;;;1.77;1.40;;;21.00;48.40;;;;;;5074271;28;20218;-82
2023/04/26 08:42:42;;;;;;;3.70;1.77;;;19.60;51.90;;;;;;5074212;28;20457;-81
2023/04/26 08:45:10;;;;;;;2.20;1.27;;;18.10;53.20;;;;;;5074681;28;20869;-81
2023/04/26 08:47:42;;;;;;;2.20;1.40;;;17.30;55.70;;;;;;5073896;28;20457;-81
2023/04/26 08:50:13;;;;;;;3.17;1.30;;;16.40;57.00;;;;;;5074048;28;20430;-81
2023/04/26 08:52:41;;;;;;;1.13;1.03;;;16.10;58.90;;;;;;5074008;28;20434;-81
2023/04/26 08:55:09;;;;;;;1.07;0.77;;;15.80;59.00;;;;;;5073603;28;20445;-81
2023/04/26 08:57:36;;;;;;;1.10;1.00;;;15.40;60.10;;;;;;5073889;28;20893;-81
2023/04/26 09:00:07;;;;;;;2.43;1.07;;;15.00;61.10;;;;;;5073701;28;20457;-81
2023/04/26 09:02:35;;;;;;;3.70;0.70;;;14.60;62.40;;;;;;5073552;28;20584;-81
2023/04/26 09:05:02;;;;;;;1.10;0.90;;;14.30;64.20;;;;;;5073724;28;20461;-81
2023/04/26 09:07:32;;;;;;;1.93;1.20;;;13.90;65.10;;;;;;5073815;28;20816;-81
2023/04/26 09:10:01;;;;;;;10.13;1.70;;;13.80;64.40;;;;;;5073737;28;20426;-81
2023/04/26 09:12:28;;;;;;;2.60;0.93;;;13.60;65.10;;;;;;5073291;28;20903;-81
2023/04/26 09:14:55;;;;;;;3.17;1.60;;;13.50;67.80;;;;;;5073667;28;20539;-81
2023/04/26 09:17:26;;;;;;;1.47;1.27;;;13.50;68.00;;;;;;5073624;28;20482;-81
2023/04/26 09:19:53;;;;;;;6.40;1.70;;;14.00;66.80;;;;;;5073530;28;20453;-81
2023/04/26 09:22:29;;;;;;;3.10;1.30;;;14.70;64.10;;;;;;5073202;28;20472;-81
2023/04/26 09:24:57;;;;;;;2.67;1.40;;;15.30;66.40;;;;;;5073741;28;20453;-81
2023/04/26 09:27:33;;;;;;;9.37;1.90;;;15.70;63.80;;;;;;5073209;28;20444;-81
2023/04/26 09:30:04;;;;;;;1.30;1.00;;;16.30;64.00;;;;;;5073576;28;20429;-81
2023/04/26 09:32:48;;;;;;;5.20;1.60;;;16.70;62.90;;;;;;5073388;28;20464;-81
2023/04/26 09:35:36;;;;;;;2.50;1.00;;;17.00;63.10;;;;;;5073456;28;20430;-81
2023/04/26 09:38:05;;;;;;;2.43;1.27;;;16.90;58.90;;;;;;5068988;28;20570;-81
2023/04/26 09:40:35;;;;;;;2.60;1.50;;;16.70;61.40;;;;;;5073227;28;20453;-79
2023/04/26 09:43:04;;;;;;;1.27;1.00;;;16.30;61.20;;;;;;5073710;28;20434;-80
2023/04/26 09:45:33;;;;;;;2.00;0.93;;;15.80;64.10;;;;;;5074055;28;20488;-84
2023/04/26 09:48:17;;;;;;;1.67;1.40;;;15.30;62.40;;;;;;5073885;28;20452;-83
2023/04/26 09:50:45;;;;;;;1.33;1.17;;;14.80;62.70;;;;;;5073503;28;20461;-85
2023/04/26 09:53:26;;;;;;;1.20;0.87;;;14.40;65.70;;;;;;5073433;28;20445;-83
2023/04/26 09:55:54;;;;;;;1.90;1.37;;;14.30;66.90;;;;;;5074050;28;20437;-82
2023/04/26 09:58:22;;;;;;;1.63;1.30;;;14.10;65.80;;;;;;5073258;28;20830;-83
2023/04/26 10:00:50;;;;;;;1.40;1.30;;;13.90;67.00;;;;;;5072930;28;20481;-83
2023/04/26 10:03:19;;;;;;;1.43;0.90;;;13.90;68.80;;;;;;5072886;28;20445;-83
2023/04/26 10:05:46;;;;;;;2.17;1.50;;;13.80;68.90;;;;;;5073080;28;20484;-82
2023/04/26 10:08:13;;;;;;;1.30;1.00;;;13.60;67.50;;;;;;5073637;28;20498;-84
2023/04/26 10:10:41;;;;;;;1.83;1.20;;;13.50;67.60;;;;;;5073023;28;20449;-83
2023/04/26 10:13:11;;;;;;;2.57;2.37;;;13.40;68.80;;;;;;5073019;28;20821;-82
2023/04/26 10:15:40;;;;;;;1.20;1.10;;;13.40;66.80;;;;;;5073032;28;20533;-82
2023/04/26 10:18:07;;;;;;;2.17;1.23;;;13.40;67.00;;;;;;5072669;28;20449;-82
2023/04/26 10:20:35;;;;;;;2.43;1.20;;;13.50;67.00;;;;;;5072942;28;20450;-82
2023/04/26 10:23:03;;;;;;;1.17;1.00;;;13.60;66.60;;;;;;5072766;28;20445;-82
2023/04/26 10:25:38;;;;;;;2.80;1.17;;;13.80;68.40;;;;;;5072929;28;20438;-82
2023/04/26 10:28:05;;;;;;;5.60;1.20;;;14.00;65.10;;;;;;5072880;28;20453;-83
2023/04/26 10:30:33;;;;;;;1.70;1.10;;;14.00;65.50;;;;;;5073122;28;20442;-82
2023/04/26 10:33:15;;;;;;;0.90;0.90;;;13.90;66.00;;;;;;5072786;28;20453;-82
2023/04/26 10:36:05;;;;;;;1.13;0.93;;;13.70;64.90;;;;;;5072897;28;20512;-82
2023/04/26 10:38:32;;;;;;;0.70;0.60;;;13.50;65.00;;;;;;5076304;28;20441;-82
2023/04/26 10:41:32;;;;;;;1.37;1.03;;;13.40;66.70;;;;;;5076404;28;20469;-82
2023/04/26 10:44:20;;;;;;;0.93;0.93;;;13.30;67.50;;;;;;5071291;28;20454;-82
2023/04/26 10:46:51;;;;;;;1.30;1.10;;;13.20;66.80;;;;;;5075972;28;20480;-83
2023/04/26 10:49:21;;;;;;;2.03;1.57;;;13.30;68.60;;;;;;5076391;28;20777;-82
2023/04/26 10:52:14;;;;;;;1.47;1.00;;;13.40;69.70;;;;;;5076267;28;20457;-82
2023/04/26 10:54:52;;;;;;;1.40;1.00;;;13.40;68.40;;;;;;5077301;28;20532;-82
2023/04/26 10:57:19;;;;;;;1.57;1.13;;;13.60;69.80;;;;;;5076243;28;20437;-83
2023/04/26 11:00:19;;;;;;;1.20;1.00;;;13.80;67.00;;;;;;5076203;28;20548;-82
2023/04/26 11:02:54;;;;;;;1.43;1.00;;;14.00;67.70;;;;;;5076188;28;20528;-82
2023/04/26 11:05:52;;;;;;;0.90;0.90;;;14.10;65.40;;;;;;5076095;28;20421;-82
2023/04/26 11:08:21;;;;;;;1.13;1.00;;;14.10;65.90;;;;;;5076086;28;20426;-83
2023/04/26 11:10:52;;;;;;;1.80;1.33;;;14.20;66.90;;;;;;5076227;28;20469;-82
2023/04/26 11:13:20;;;;;;;2.57;1.53;;;14.30;63.80;;;;;;5076182;28;20503;-82
2023/04/26 11:15:47;;;;;;;1.07;0.97;;;14.20;65.20;;;;;;5075911;28;20538;-82
2023/04/26 11:18:19;;;;;;;1.10;1.00;;;14.20;66.20;;;;;;5075878;28;20449;-82
2023/04/26 11:20:46;;;;;;;0.90;0.90;;;14.20;65.60;;;;;;5075434;28;21034;-83
2023/04/26 11:23:13;;;;;;;2.50;1.50;;;14.30;65.50;;;;;;5076030;28;20449;-82
2023/04/26 11:25:40;;;;;;;4.77;1.50;;;14.20;65.50;;;;;;5075599;28;20445;-83
2023/04/26 11:28:07;;;;;;;0.80;0.80;;;14.20;67.00;;;;;;5075704;28;20448;-82
2023/04/26 11:30:33;;;;;;;1.33;1.10;;;14.20;64.40;;;;;;5075480;28;20469;-82
2023/04/26 11:33:02;;;;;;;1.37;1.27;;;14.10;62.40;;;;;;5076153;28;20442;-83
2023/04/26 11:35:34;;;;;;;1.00;0.80;;;14.00;65.50;;;;;;5075372;28;20524;-83
2023/04/26 11:38:03;;;;;;;1.63;1.53;;;13.90;66.70;;;;;;5075519;28;20429;-82
2023/04/26 11:40:31;;;;;;;1.83;1.03;;;13.90;66.20;;;;;;5075028;28;20574;-82
2023/04/26 11:43:02;;;;;;;2.50;0.80;;;13.80;64.70;;;;;;5075108;28;20438;-82
2023/04/26 11:45:29;;;;;;;2.40;0.73;;;13.90;66.20;;;;;;5074988;28;20863;-82
2023/04/26 11:47:57;;;;;;;1.17;1.17;;;13.90;66.00;;;;;;5074364;28;20560;-82
2023/04/26 11:50:25;;;;;;;1.00;0.70;;;13.80;64.10;;;;;;5074708;28;20473;-82
2023/04/26 11:52:55;;;;;;;1.00;1.00;;;13.90;66.40;;;;;;5075266;28;20480;-82
2023/04/26 11:55:26;;;;;;;1.00;0.90;;;14.00;64.80;;;;;;5075217;28;20452;-82
2023/04/26 11:57:53;;;;;;;3.43;1.30;;;14.10;65.30;;;;;;5074807;28;20803;-83
2023/04/26 12:00:20;;;;;;;3.27;1.23;;;14.30;66.70;;;;;;5075129;28;20460;-82
2023/04/26 12:02:48;;;;;;;3.83;1.57;;;14.50;63.20;;;;;;5074957;28;20449;-82
2023/04/26 12:05:22;;;;;;;2.20;1.10;;;14.40;66.40;;;;;;5074927;28;20461;-83
2023/04/26 12:07:55;;;;;;;5.53;0.80;;;14.40;66.30;;;;;;5074801;28;20535;-83
2023/04/26 12:10:25;;;;;;;1.77;1.67;;;14.50;65.70;;;;;;5074505;28;20827;-82
2023/04/26 12:12:53;;;;;;;0.57;0.57;;;14.50;66.60;;;;;;5074566;28;20917;-82
2023/04/26 12:15:24;;;;;;;2.07;0.80;;;14.60;67.10;;;;;;5075854;28;20500;-89
2023/04/26 12:17:55;;;;;;;7.77;1.83;;;14.60;68.20;;;;;;5076196;28;20428;-82
2023/04/26 12:20:33;;;;;;;1.93;0.83;;;14.60;67.30;;;;;;5075481;28;20475;-88
2023/04/26 12:23:03;;;;;;;1.60;1.50;;;14.70;67.10;;;;;;5075436;28;20457;-88
2023/04/26 12:25:30;;;;;;;2.43;1.30;;;14.70;64.30;;;;;;5075587;28;20460;-89
2023/04/26 12:27:58;;;;;;;0.63;0.60;;;14.60;64.00;;;;;;5074831;28;20492;-88
2023/04/26 12:30:26;;;;;;;1.10;1.00;;;14.30;66.10;;;;;;5075410;28;20462;-88
2023/04/26 12:32:53;;;;;;;0.93;0.93;;;14.20;66.90;;;;;;5075339;28;20453;-89
2023/04/26 12:35:20;;;;;;;0.97;0.80;;;14.00;63.80;;;;;;5075541;28;20456;-89
2023/04/26 12:37:48;;;;;;;2.57;1.67;;;13.90;63.70;;;;;;5075330;28;20441;-89
2023/04/26 12:40:18;;;;;;;4.53;1.40;;;13.90;65.80;;;;;;5075117;28;20461;-89
2023/04/26 12:42:45;;;;;;;0.67;0.67;;;13.80;66.50;;;;;;5075846;28;20449;-88
2023/04/26 12:45:12;;;;;;;2.23;1.40;;;13.90;67.00;;;;;;5075198;28;20457;-88
2023/04/26 12:47:38;;;;;;;1.80;0.90;;;14.00;64.60;;;;;;5075070;28;20480;-89
2023/04/26 12:50:06;;;;;;;1.37;0.80;;;13.80;63.40;;;;;;5075840;28;20445;-89
2023/04/26 12:52:33;;;;;;;2.40;0.73;;;13.50;64.90;;;;;;5075023;28;20466;-89
2023/04/26 12:55:00;;;;;;;0.73;0.60;;;13.50;65.70;;;;;;5074968;28;20819;-87
2023/04/26 12:57:28;;;;;;;0.90;0.90;;;13.50;67.10;;;;;;5075024;28;20457;-88
2023/04/26 12:59:55;;;;;;;2.30;1.37;;;13.60;68.10;;;;;;5074503;28;20450;-88